sensor_id;sensor_type;location;lat;lon;timestamp;temperature;humidity
10692;DHT22;5396;50.950;6.988;2022-09-16T00:01:25;13.70;99.90
10692;DHT22;5396;50.950;6.988;2022-09-16T00:03:55;13.60;99.90
10692;DHT22;5396;50.950;6.988;2022-09-16T00:06:26;13.60;99.90
10692;DHT22;5396;50.950;6.988;2022-09-16T00:08:54;13.50;99.90
10692;DHT22;5396;50.950;6.988;2022-09-16T00:11:20;13.60;99.90
10692;DHT22;5396;50.950;6.988;2022-09-16T00:13:46;13.50;99.90
10692;DHT22;5396;50.950;6.988;2022-09-16T00:16:20;13.50;99.90
10692;DHT22;5396;50.950;6.988;2022-09-16T00:18:46;13.50;99.90
10692;DHT22;5396;50.950;6.988;2022-09-16T00:21:12;13.40;99.90
10692;DHT22;5396;50.950;6.988;2022-09-16T00:23:38;13.40;99.90
10692;DHT22;5396;50.950;6.988;2022-09-16T00:26:04;13.40;99.90
10692;DHT22;5396;50.950;6.988;2022-09-16T00:28:29;13.40;99.90
10692;DHT22;5396;50.950;6.988;2022-09-16T00:30:59;13.40;99.90
10692;DHT22;5396;50.950;6.988;2022-09-16T00:33:26;13.30;99.90
10692;DHT22;5396;50.950;6.988;2022-09-16T00:35:51;13.30;99.90
10692;DHT22;5396;50.950;6.988;2022-09-16T00:38:17;13.40;99.90
10692;DHT22;5396;50.950;6.988;2022-09-16T00:40:47;13.30;99.90
10692;DHT22;5396;50.950;6.988;2022-09-16T00:43:17;13.30;99.90
10692;DHT22;5396;50.950;6.988;2022-09-16T00:45:46;13.30;99.90
10692;DHT22;5396;50.950;6.988;2022-09-16T00:48:18;13.30;99.90
10692;DHT22;5396;50.950;6.988;2022-09-16T00:50:56;13.40;99.90
10692;DHT22;5396;50.950;6.988;2022-09-16T00:53:25;13.40;99.90
10692;DHT22;5396;50.950;6.988;2022-09-16T00:55:54;13.30;99.90
10692;DHT22;5396;50.950;6.988;2022-09-16T01:00:55;13.30;99.90
10692;DHT22;5396;50.950;6.988;2022-09-16T01:03:22;13.30;99.90
10692;DHT22;5396;50.950;6.988;2022-09-16T01:05:48;13.30;99.90
10692;DHT22;5396;50.950;6.988;2022-09-16T01:08:14;13.30;99.90
10692;DHT22;5396;50.950;6.988;2022-09-16T01:10:40;13.30;99.90
10692;DHT22;5396;50.950;6.988;2022-09-16T01:13:09;13.30;99.90
10692;DHT22;5396;50.950;6.988;2022-09-16T01:21:17;13.30;99.90
10692;DHT22;5396;50.950;6.988;2022-09-16T01:35:10;13.30;99.90
10692;DHT22;5396;50.950;6.988;2022-09-16T01:40:56;13.30;99.90
10692;DHT22;5396;50.950;6.988;2022-09-16T01:46:23;13.30;99.90
10692;DHT22;5396;50.950;6.988;2022-09-16T01:51:46;13.30;99.90
10692;DHT22;5396;50.950;6.988;2022-09-16T01:59:43;13.30;99.90
10692;DHT22;5396;50.950;6.988;2022-09-16T02:02:19;13.40;99.90
10692;DHT22;5396;50.950;6.988;2022-09-16T02:04:53;13.40;99.90
10692;DHT22;5396;50.950;6.988;2022-09-16T02:07:25;13.40;99.90
10692;DHT22;5396;50.950;6.988;2022-09-16T02:09:56;13.40;99.90
10692;DHT22;5396;50.950;6.988;2022-09-16T02:12:26;13.50;99.90
10692;DHT22;5396;50.950;6.988;2022-09-16T02:14:58;13.50;99.90
10692;DHT22;5396;50.950;6.988;2022-09-16T02:17:26;13.50;99.90
10692;DHT22;5396;50.950;6.988;2022-09-16T02:20:03;13.50;99.90
10692;DHT22;5396;50.950;6.988;2022-09-16T02:22:39;13.50;99.90
10692;DHT22;5396;50.950;6.988;2022-09-16T02:25:07;13.50;99.90
10692;DHT22;5396;50.950;6.988;2022-09-16T02:27:36;13.50;99.90
10692;DHT22;5396;50.950;6.988;2022-09-16T02:30:09;13.50;99.90
10692;DHT22;5396;50.950;6.988;2022-09-16T02:32:45;13.50;99.90
10692;DHT22;5396;50.950;6.988;2022-09-16T02:35:15;13.50;99.90
10692;DHT22;5396;50.950;6.988;2022-09-16T02:37:58;13.50;99.90
10692;DHT22;5396;50.950;6.988;2022-09-16T02:40:33;13.50;99.90
10692;DHT22;5396;50.950;6.988;2022-09-16T02:43:00;13.50;99.90
10692;DHT22;5396;50.950;6.988;2022-09-16T02:48:12;13.50;99.90
10692;DHT22;5396;50.950;6.988;2022-09-16T02:50:51;13.50;99.90
10692;DHT22;5396;50.950;6.988;2022-09-16T02:56:12;13.50;99.90
10692;DHT22;5396;50.950;6.988;2022-09-16T02:58:39;13.40;99.90
10692;DHT22;5396;50.950;6.988;2022-09-16T03:01:05;13.30;99.90
10692;DHT22;5396;50.950;6.988;2022-09-16T03:03:31;13.30;99.90
10692;DHT22;5396;50.950;6.988;2022-09-16T03:08:35;13.20;99.90
10692;DHT22;5396;50.950;6.988;2022-09-16T03:11:28;13.20;99.90
10692;DHT22;5396;50.950;6.988;2022-09-16T03:14:31;13.00;99.90
10692;DHT22;5396;50.950;6.988;2022-09-16T03:20:03;12.70;99.90
10692;DHT22;5396;50.950;6.988;2022-09-16T03:25:43;12.60;99.90
10692;DHT22;5396;50.950;6.988;2022-09-16T03:28:18;12.50;99.90
10692;DHT22;5396;50.950;6.988;2022-09-16T03:31:07;12.50;99.90
10692;DHT22;5396;50.950;6.988;2022-09-16T03:33:49;12.60;99.90
10692;DHT22;5396;50.950;6.988;2022-09-16T03:36:19;12.60;99.90
10692;DHT22;5396;50.950;6.988;2022-09-16T03:38:48;12.60;99.90
10692;DHT22;5396;50.950;6.988;2022-09-16T03:41:14;12.70;99.90
10692;DHT22;5396;50.950;6.988;2022-09-16T03:43:55;12.70;99.90
10692;DHT22;5396;50.950;6.988;2022-09-16T03:46:21;12.80;99.90
10692;DHT22;5396;50.950;6.988;2022-09-16T03:48:46;12.70;99.90
10692;DHT22;5396;50.950;6.988;2022-09-16T03:51:13;12.80;99.90
10692;DHT22;5396;50.950;6.988;2022-09-16T03:53:38;12.80;99.90
10692;DHT22;5396;50.950;6.988;2022-09-16T03:56:04;12.80;99.90
10692;DHT22;5396;50.950;6.988;2022-09-16T03:58:30;12.80;99.90
10692;DHT22;5396;50.950;6.988;2022-09-16T04:00:55;12.80;99.90
10692;DHT22;5396;50.950;6.988;2022-09-16T04:03:21;12.90;99.90
10692;DHT22;5396;50.950;6.988;2022-09-16T04:05:54;12.90;99.90
10692;DHT22;5396;50.950;6.988;2022-09-16T04:08:21;12.90;99.90
10692;DHT22;5396;50.950;6.988;2022-09-16T04:11:00;12.90;99.90
10692;DHT22;5396;50.950;6.988;2022-09-16T04:13:30;13.00;99.90
10692;DHT22;5396;50.950;6.988;2022-09-16T04:15:56;13.00;99.90
10692;DHT22;5396;50.950;6.988;2022-09-16T04:18:22;12.90;99.90
10692;DHT22;5396;50.950;6.988;2022-09-16T04:20:48;12.90;99.90
10692;DHT22;5396;50.950;6.988;2022-09-16T04:23:13;12.90;99.90
10692;DHT22;5396;50.950;6.988;2022-09-16T04:25:39;12.90;99.90
10692;DHT22;5396;50.950;6.988;2022-09-16T04:28:06;12.90;99.90
10692;DHT22;5396;50.950;6.988;2022-09-16T04:30:32;12.90;99.90
10692;DHT22;5396;50.950;6.988;2022-09-16T04:32:57;12.90;99.90
10692;DHT22;5396;50.950;6.988;2022-09-16T04:35:24;12.80;99.90
10692;DHT22;5396;50.950;6.988;2022-09-16T04:37:50;12.90;99.90
10692;DHT22;5396;50.950;6.988;2022-09-16T04:40:17;12.90;99.90
10692;DHT22;5396;50.950;6.988;2022-09-16T04:42:52;12.80;99.90
10692;DHT22;5396;50.950;6.988;2022-09-16T04:45:17;12.80;99.90
10692;DHT22;5396;50.950;6.988;2022-09-16T04:47:43;12.80;99.90
10692;DHT22;5396;50.950;6.988;2022-09-16T04:50:09;12.80;99.90
10692;DHT22;5396;50.950;6.988;2022-09-16T04:52:35;12.80;99.90
10692;DHT22;5396;50.950;6.988;2022-09-16T04:55:01;12.70;99.90
10692;DHT22;5396;50.950;6.988;2022-09-16T04:57:30;12.70;99.90
10692;DHT22;5396;50.950;6.988;2022-09-16T04:59:57;12.70;99.90
10692;DHT22;5396;50.950;6.988;2022-09-16T05:02:22;12.70;99.90
10692;DHT22;5396;50.950;6.988;2022-09-16T05:04:48;12.70;99.90
10692;DHT22;5396;50.950;6.988;2022-09-16T05:07:14;12.80;99.90
10692;DHT22;5396;50.950;6.988;2022-09-16T05:09:39;12.70;99.90
10692;DHT22;5396;50.950;6.988;2022-09-16T05:12:05;12.70;99.90
10692;DHT22;5396;50.950;6.988;2022-09-16T05:14:31;12.70;99.90
10692;DHT22;5396;50.950;6.988;2022-09-16T05:16:57;12.70;99.90
10692;DHT22;5396;50.950;6.988;2022-09-16T05:19:22;12.60;99.90
10692;DHT22;5396;50.950;6.988;2022-09-16T05:21:48;12.60;99.90
10692;DHT22;5396;50.950;6.988;2022-09-16T05:24:13;12.60;99.90
10692;DHT22;5396;50.950;6.988;2022-09-16T05:26:40;12.60;99.90
10692;DHT22;5396;50.950;6.988;2022-09-16T05:29:10;12.70;99.90
10692;DHT22;5396;50.950;6.988;2022-09-16T05:31:37;12.70;99.90
10692;DHT22;5396;50.950;6.988;2022-09-16T05:34:12;12.70;99.90
10692;DHT22;5396;50.950;6.988;2022-09-16T05:36:38;12.70;99.90
10692;DHT22;5396;50.950;6.988;2022-09-16T05:39:05;12.70;99.90
10692;DHT22;5396;50.950;6.988;2022-09-16T05:41:31;12.70;99.90
10692;DHT22;5396;50.950;6.988;2022-09-16T05:44:00;12.80;99.90
10692;DHT22;5396;50.950;6.988;2022-09-16T05:46:27;12.80;99.90
10692;DHT22;5396;50.950;6.988;2022-09-16T05:48:53;12.90;99.90
10692;DHT22;5396;50.950;6.988;2022-09-16T05:51:21;12.90;99.90
10692;DHT22;5396;50.950;6.988;2022-09-16T05:53:48;12.90;99.90
10692;DHT22;5396;50.950;6.988;2022-09-16T05:56:16;13.00;99.90
10692;DHT22;5396;50.950;6.988;2022-09-16T05:58:43;13.00;99.90
10692;DHT22;5396;50.950;6.988;2022-09-16T06:03:39;13.00;99.90
10692;DHT22;5396;50.950;6.988;2022-09-16T06:06:23;13.10;99.90
10692;DHT22;5396;50.950;6.988;2022-09-16T06:08:49;13.10;99.90
10692;DHT22;5396;50.950;6.988;2022-09-16T06:11:15;13.10;99.90
10692;DHT22;5396;50.950;6.988;2022-09-16T06:13:40;13.10;99.90
10692;DHT22;5396;50.950;6.988;2022-09-16T06:16:07;13.10;99.90
10692;DHT22;5396;50.950;6.988;2022-09-16T06:18:33;13.20;99.90
10692;DHT22;5396;50.950;6.988;2022-09-16T06:21:05;13.20;99.90
10692;DHT22;5396;50.950;6.988;2022-09-16T06:23:31;13.20;99.90
10692;DHT22;5396;50.950;6.988;2022-09-16T06:26:01;13.30;99.90
10692;DHT22;5396;50.950;6.988;2022-09-16T06:28:28;13.30;99.90
10692;DHT22;5396;50.950;6.988;2022-09-16T06:33:27;13.30;99.90
10692;DHT22;5396;50.950;6.988;2022-09-16T06:35:52;13.20;99.90
10692;DHT22;5396;50.950;6.988;2022-09-16T06:38:18;13.20;99.90
10692;DHT22;5396;50.950;6.988;2022-09-16T06:40:44;13.20;99.90
10692;DHT22;5396;50.950;6.988;2022-09-16T06:43:09;13.20;99.90
10692;DHT22;5396;50.950;6.988;2022-09-16T06:45:35;13.20;99.90
10692;DHT22;5396;50.950;6.988;2022-09-16T06:48:01;13.20;99.90
10692;DHT22;5396;50.950;6.988;2022-09-16T06:50:26;13.20;99.90
10692;DHT22;5396;50.950;6.988;2022-09-16T06:52:52;13.30;99.90
10692;DHT22;5396;50.950;6.988;2022-09-16T06:55:17;13.30;99.90
10692;DHT22;5396;50.950;6.988;2022-09-16T06:57:43;13.30;99.90
10692;DHT22;5396;50.950;6.988;2022-09-16T07:00:09;13.40;99.90
10692;DHT22;5396;50.950;6.988;2022-09-16T07:02:35;13.40;99.90
10692;DHT22;5396;50.950;6.988;2022-09-16T07:05:01;13.40;99.90
10692;DHT22;5396;50.950;6.988;2022-09-16T07:07:29;13.50;99.90
10692;DHT22;5396;50.950;6.988;2022-09-16T07:09:56;13.50;99.90
10692;DHT22;5396;50.950;6.988;2022-09-16T07:12:21;13.50;99.90
10692;DHT22;5396;50.950;6.988;2022-09-16T07:14:47;13.50;99.90
10692;DHT22;5396;50.950;6.988;2022-09-16T07:17:13;13.50;99.90
10692;DHT22;5396;50.950;6.988;2022-09-16T07:19:39;13.50;99.90
10692;DHT22;5396;50.950;6.988;2022-09-16T07:22:06;13.50;99.90
10692;DHT22;5396;50.950;6.988;2022-09-16T07:24:32;13.60;99.90
10692;DHT22;5396;50.950;6.988;2022-09-16T07:26:57;13.60;99.90
10692;DHT22;5396;50.950;6.988;2022-09-16T07:29:23;13.60;99.90
10692;DHT22;5396;50.950;6.988;2022-09-16T07:31:49;13.60;99.90
10692;DHT22;5396;50.950;6.988;2022-09-16T07:34:14;13.70;99.90
10692;DHT22;5396;50.950;6.988;2022-09-16T07:36:42;13.70;99.90
10692;DHT22;5396;50.950;6.988;2022-09-16T07:39:09;13.80;99.90
10692;DHT22;5396;50.950;6.988;2022-09-16T07:41:38;13.80;99.90
10692;DHT22;5396;50.950;6.988;2022-09-16T07:44:05;13.80;99.90
10692;DHT22;5396;50.950;6.988;2022-09-16T07:46:33;13.70;99.90
10692;DHT22;5396;50.950;6.988;2022-09-16T07:49:00;13.70;99.90
10692;DHT22;5396;50.950;6.988;2022-09-16T07:51:27;13.70;99.90
10692;DHT22;5396;50.950;6.988;2022-09-16T07:53:57;13.60;99.90
10692;DHT22;5396;50.950;6.988;2022-09-16T07:56:25;13.70;99.90
10692;DHT22;5396;50.950;6.988;2022-09-16T07:58:52;13.70;99.90
10692;DHT22;5396;50.950;6.988;2022-09-16T08:01:18;13.80;99.90
10692;DHT22;5396;50.950;6.988;2022-09-16T08:03:45;13.70;99.90
10692;DHT22;5396;50.950;6.988;2022-09-16T08:06:22;13.70;99.90
10692;DHT22;5396;50.950;6.988;2022-09-16T08:08:51;13.70;99.90
10692;DHT22;5396;50.950;6.988;2022-09-16T08:11:17;13.80;99.90
10692;DHT22;5396;50.950;6.988;2022-09-16T08:13:43;13.90;99.90
10692;DHT22;5396;50.950;6.988;2022-09-16T08:16:12;13.90;99.90
10692;DHT22;5396;50.950;6.988;2022-09-16T08:18:38;14.00;99.90
10692;DHT22;5396;50.950;6.988;2022-09-16T08:21:13;14.00;99.90
10692;DHT22;5396;50.950;6.988;2022-09-16T08:23:39;14.00;99.90
10692;DHT22;5396;50.950;6.988;2022-09-16T08:26:06;14.00;99.90
10692;DHT22;5396;50.950;6.988;2022-09-16T08:28:36;13.90;99.90
10692;DHT22;5396;50.950;6.988;2022-09-16T08:31:03;13.90;99.90
10692;DHT22;5396;50.950;6.988;2022-09-16T08:33:29;14.00;99.90
10692;DHT22;5396;50.950;6.988;2022-09-16T08:36:02;14.10;99.90
10692;DHT22;5396;50.950;6.988;2022-09-16T08:38:29;14.30;99.90
10692;DHT22;5396;50.950;6.988;2022-09-16T08:41:00;14.50;99.90
10692;DHT22;5396;50.950;6.988;2022-09-16T08:43:36;14.40;99.90
10692;DHT22;5396;50.950;6.988;2022-09-16T08:46:22;14.30;99.90
10692;DHT22;5396;50.950;6.988;2022-09-16T08:48:56;14.20;99.90
10692;DHT22;5396;50.950;6.988;2022-09-16T08:51:23;14.30;99.90
10692;DHT22;5396;50.950;6.988;2022-09-16T08:53:59;14.30;99.90
10692;DHT22;5396;50.950;6.988;2022-09-16T08:56:28;14.30;99.90
10692;DHT22;5396;50.950;6.988;2022-09-16T08:58:58;14.40;99.90
10692;DHT22;5396;50.950;6.988;2022-09-16T09:01:33;14.50;99.90
10692;DHT22;5396;50.950;6.988;2022-09-16T09:03:59;14.60;99.90
10692;DHT22;5396;50.950;6.988;2022-09-16T09:12:05;14.50;99.90
10692;DHT22;5396;50.950;6.988;2022-09-16T09:14:43;14.50;99.90
10692;DHT22;5396;50.950;6.988;2022-09-16T09:25:19;14.60;99.90
10692;DHT22;5396;50.950;6.988;2022-09-16T09:30:24;14.70;99.90
10692;DHT22;5396;50.950;6.988;2022-09-16T09:35:51;14.70;99.90
10692;DHT22;5396;50.950;6.988;2022-09-16T09:41:19;15.00;99.90
10692;DHT22;5396;50.950;6.988;2022-09-16T09:44:00;15.20;99.90
10692;DHT22;5396;50.950;6.988;2022-09-16T09:46:41;15.40;99.90
10692;DHT22;5396;50.950;6.988;2022-09-16T09:49:33;15.40;99.90
10692;DHT22;5396;50.950;6.988;2022-09-16T09:54:36;15.40;99.90
10692;DHT22;5396;50.950;6.988;2022-09-16T09:57:19;15.20;99.90
10692;DHT22;5396;50.950;6.988;2022-09-16T09:59:51;15.20;99.90
10692;DHT22;5396;50.950;6.988;2022-09-16T10:02:21;15.20;99.90
10692;DHT22;5396;50.950;6.988;2022-09-16T10:04:47;15.20;99.90
10692;DHT22;5396;50.950;6.988;2022-09-16T10:07:19;15.20;99.90
10692;DHT22;5396;50.950;6.988;2022-09-16T10:09:50;15.30;99.90
10692;DHT22;5396;50.950;6.988;2022-09-16T10:12:29;15.30;99.90
10692;DHT22;5396;50.950;6.988;2022-09-16T10:14:55;15.40;99.90
10692;DHT22;5396;50.950;6.988;2022-09-16T10:17:21;15.50;99.90
10692;DHT22;5396;50.950;6.988;2022-09-16T10:19:57;15.50;99.90
10692;DHT22;5396;50.950;6.988;2022-09-16T10:22:29;15.60;99.90
10692;DHT22;5396;50.950;6.988;2022-09-16T10:25:00;15.60;99.90
10692;DHT22;5396;50.950;6.988;2022-09-16T10:30:13;15.80;99.90
10692;DHT22;5396;50.950;6.988;2022-09-16T10:32:50;15.60;99.90
10692;DHT22;5396;50.950;6.988;2022-09-16T10:35:30;15.50;99.90
10692;DHT22;5396;50.950;6.988;2022-09-16T10:37:58;15.40;99.90
10692;DHT22;5396;50.950;6.988;2022-09-16T10:40:26;15.40;99.90
10692;DHT22;5396;50.950;6.988;2022-09-16T10:43:01;15.40;99.90
10692;DHT22;5396;50.950;6.988;2022-09-16T10:45:30;15.50;99.90
10692;DHT22;5396;50.950;6.988;2022-09-16T10:48:00;15.90;99.90
10692;DHT22;5396;50.950;6.988;2022-09-16T10:50:27;16.20;99.90
10692;DHT22;5396;50.950;6.988;2022-09-16T10:52:53;16.40;99.90
10692;DHT22;5396;50.950;6.988;2022-09-16T10:57:48;16.50;99.90
10692;DHT22;5396;50.950;6.988;2022-09-16T11:03:25;16.50;99.90
10692;DHT22;5396;50.950;6.988;2022-09-16T11:14:50;16.20;99.90
10692;DHT22;5396;50.950;6.988;2022-09-16T11:31:21;15.90;99.90
10692;DHT22;5396;50.950;6.988;2022-09-16T11:39:33;16.10;99.90
10692;DHT22;5396;50.950;6.988;2022-09-16T11:44:47;16.20;99.90
10692;DHT22;5396;50.950;6.988;2022-09-16T11:50:10;16.50;99.90
10692;DHT22;5396;50.950;6.988;2022-09-16T11:52:48;16.50;99.90
10692;DHT22;5396;50.950;6.988;2022-09-16T11:58:26;16.80;99.90
10692;DHT22;5396;50.950;6.988;2022-09-16T12:00:53;17.00;99.90
10692;DHT22;5396;50.950;6.988;2022-09-16T12:03:44;16.90;99.90
10692;DHT22;5396;50.950;6.988;2022-09-16T12:06:14;16.70;99.90
10692;DHT22;5396;50.950;6.988;2022-09-16T12:08:50;16.60;99.90
10692;DHT22;5396;50.950;6.988;2022-09-16T12:13:54;16.30;99.90
10692;DHT22;5396;50.950;6.988;2022-09-16T12:16:31;16.40;99.90
10692;DHT22;5396;50.950;6.988;2022-09-16T12:19:05;16.50;99.90
10692;DHT22;5396;50.950;6.988;2022-09-16T12:21:39;16.40;99.90
10692;DHT22;5396;50.950;6.988;2022-09-16T12:24:18;16.40;99.90
10692;DHT22;5396;50.950;6.988;2022-09-16T12:26:51;16.50;99.90
10692;DHT22;5396;50.950;6.988;2022-09-16T12:29:22;16.70;99.90
10692;DHT22;5396;50.950;6.988;2022-09-16T12:32:04;16.80;99.90
10692;DHT22;5396;50.950;6.988;2022-09-16T12:34:47;16.40;99.90
10692;DHT22;5396;50.950;6.988;2022-09-16T12:37:50;14.90;99.90
10692;DHT22;5396;50.950;6.988;2022-09-16T12:43:00;12.30;99.90
10692;DHT22;5396;50.950;6.988;2022-09-16T12:45:53;11.90;99.90
10692;DHT22;5396;50.950;6.988;2022-09-16T12:51:28;11.40;99.90
10692;DHT22;5396;50.950;6.988;2022-09-16T13:01:45;11.30;99.90
10692;DHT22;5396;50.950;6.988;2022-09-16T13:04:21;11.50;99.90
10692;DHT22;5396;50.950;6.988;2022-09-16T13:06:50;11.70;99.90
10692;DHT22;5396;50.950;6.988;2022-09-16T13:14:26;12.40;99.90
10692;DHT22;5396;50.950;6.988;2022-09-16T13:16:55;12.80;99.90
10692;DHT22;5396;50.950;6.988;2022-09-16T13:25:17;14.00;99.90
10692;DHT22;5396;50.950;6.988;2022-09-16T13:27:58;14.70;99.90
10692;DHT22;5396;50.950;6.988;2022-09-16T13:30:36;15.60;99.90
10692;DHT22;5396;50.950;6.988;2022-09-16T13:35:46;14.40;99.90
10692;DHT22;5396;50.950;6.988;2022-09-16T13:40:40;13.20;99.90
10692;DHT22;5396;50.950;6.988;2022-09-16T13:43:30;13.00;99.90
10692;DHT22;5396;50.950;6.988;2022-09-16T13:46:03;13.00;99.90
10692;DHT22;5396;50.950;6.988;2022-09-16T13:48:35;13.00;99.90
10692;DHT22;5396;50.950;6.988;2022-09-16T13:51:08;13.30;99.90
10692;DHT22;5396;50.950;6.988;2022-09-16T13:53:43;13.60;99.90
10692;DHT22;5396;50.950;6.988;2022-09-16T14:09:45;13.40;99.90
10692;DHT22;5396;50.950;6.988;2022-09-16T14:14:47;13.20;99.90
10692;DHT22;5396;50.950;6.988;2022-09-16T14:17:21;13.10;99.90
10692;DHT22;5396;50.950;6.988;2022-09-16T14:19:50;13.10;99.90
10692;DHT22;5396;50.950;6.988;2022-09-16T14:22:19;13.10;99.90
10692;DHT22;5396;50.950;6.988;2022-09-16T14:24:47;13.20;99.90
10692;DHT22;5396;50.950;6.988;2022-09-16T14:27:31;13.20;99.90
10692;DHT22;5396;50.950;6.988;2022-09-16T14:29:59;13.40;99.90
10692;DHT22;5396;50.950;6.988;2022-09-16T14:32:30;13.50;99.90
10692;DHT22;5396;50.950;6.988;2022-09-16T14:34:59;13.70;99.90
10692;DHT22;5396;50.950;6.988;2022-09-16T14:37:27;14.00;99.90
10692;DHT22;5396;50.950;6.988;2022-09-16T14:39:56;14.20;99.90
10692;DHT22;5396;50.950;6.988;2022-09-16T14:42:28;14.40;99.90
10692;DHT22;5396;50.950;6.988;2022-09-16T14:44:55;14.50;99.90
10692;DHT22;5396;50.950;6.988;2022-09-16T14:47:31;14.70;99.90
10692;DHT22;5396;50.950;6.988;2022-09-16T14:50:04;14.90;99.90
10692;DHT22;5396;50.950;6.988;2022-09-16T14:52:32;14.90;99.90
10692;DHT22;5396;50.950;6.988;2022-09-16T14:54:58;14.60;99.90
10692;DHT22;5396;50.950;6.988;2022-09-16T14:57:26;14.40;99.90
10692;DHT22;5396;50.950;6.988;2022-09-16T14:59:55;14.30;99.90
10692;DHT22;5396;50.950;6.988;2022-09-16T15:02:38;14.30;99.90
10692;DHT22;5396;50.950;6.988;2022-09-16T15:07:40;14.30;99.90
10692;DHT22;5396;50.950;6.988;2022-09-16T15:10:08;14.30;99.90
10692;DHT22;5396;50.950;6.988;2022-09-16T15:12:44;14.30;99.90
10692;DHT22;5396;50.950;6.988;2022-09-16T15:15:21;14.50;99.90
10692;DHT22;5396;50.950;6.988;2022-09-16T15:20:27;14.70;99.90
10692;DHT22;5396;50.950;6.988;2022-09-16T15:22:54;14.70;99.90
10692;DHT22;5396;50.950;6.988;2022-09-16T15:25:25;14.70;99.90
10692;DHT22;5396;50.950;6.988;2022-09-16T15:28:04;14.60;99.90
10692;DHT22;5396;50.950;6.988;2022-09-16T15:30:30;14.50;99.90
10692;DHT22;5396;50.950;6.988;2022-09-16T15:32:56;14.50;99.90
10692;DHT22;5396;50.950;6.988;2022-09-16T15:35:28;14.50;99.90
10692;DHT22;5396;50.950;6.988;2022-09-16T15:38:10;14.60;99.90
10692;DHT22;5396;50.950;6.988;2022-09-16T15:40:37;14.80;99.90
10692;DHT22;5396;50.950;6.988;2022-09-16T15:45:34;15.30;99.90
10692;DHT22;5396;50.950;6.988;2022-09-16T15:48:05;15.20;99.90
10692;DHT22;5396;50.950;6.988;2022-09-16T15:50:45;14.80;99.90
10692;DHT22;5396;50.950;6.988;2022-09-16T15:53:19;14.30;99.90
10692;DHT22;5396;50.950;6.988;2022-09-16T15:56:15;14.00;99.90
10692;DHT22;5396;50.950;6.988;2022-09-16T15:58:54;13.80;99.90
10692;DHT22;5396;50.950;6.988;2022-09-16T16:04:04;13.60;99.90
10692;DHT22;5396;50.950;6.988;2022-09-16T16:06:59;13.60;99.90
10692;DHT22;5396;50.950;6.988;2022-09-16T16:11:52;13.50;99.90
10692;DHT22;5396;50.950;6.988;2022-09-16T16:14:17;13.60;99.90
10692;DHT22;5396;50.950;6.988;2022-09-16T16:16:43;13.70;99.90
10692;DHT22;5396;50.950;6.988;2022-09-16T16:19:09;13.80;99.90
10692;DHT22;5396;50.950;6.988;2022-09-16T16:21:37;14.00;99.90
10692;DHT22;5396;50.950;6.988;2022-09-16T16:24:16;14.10;99.90
10692;DHT22;5396;50.950;6.988;2022-09-16T16:26:42;14.10;99.90
10692;DHT22;5396;50.950;6.988;2022-09-16T16:29:08;14.10;99.90
10692;DHT22;5396;50.950;6.988;2022-09-16T16:31:33;14.00;99.90
10692;DHT22;5396;50.950;6.988;2022-09-16T16:34:01;14.00;99.90
10692;DHT22;5396;50.950;6.988;2022-09-16T16:36:27;13.80;99.90
10692;DHT22;5396;50.950;6.988;2022-09-16T16:38:53;13.90;99.90
10692;DHT22;5396;50.950;6.988;2022-09-16T16:41:23;13.80;99.90
10692;DHT22;5396;50.950;6.988;2022-09-16T16:43:49;13.80;99.90
10692;DHT22;5396;50.950;6.988;2022-09-16T16:46:16;13.70;99.90
10692;DHT22;5396;50.950;6.988;2022-09-16T16:48:42;13.70;99.90
10692;DHT22;5396;50.950;6.988;2022-09-16T16:51:11;13.70;99.90
10692;DHT22;5396;50.950;6.988;2022-09-16T16:53:37;13.60;99.90
10692;DHT22;5396;50.950;6.988;2022-09-16T16:56:09;13.50;99.90
10692;DHT22;5396;50.950;6.988;2022-09-16T16:58:35;13.40;99.90
10692;DHT22;5396;50.950;6.988;2022-09-16T17:01:08;13.30;99.90
10692;DHT22;5396;50.950;6.988;2022-09-16T17:03:35;13.20;99.90
10692;DHT22;5396;50.950;6.988;2022-09-16T17:06:00;13.10;99.90
10692;DHT22;5396;50.950;6.988;2022-09-16T17:08:26;13.00;99.90
10692;DHT22;5396;50.950;6.988;2022-09-16T17:11:12;13.00;99.90
10692;DHT22;5396;50.950;6.988;2022-09-16T17:13:42;12.90;99.90
10692;DHT22;5396;50.950;6.988;2022-09-16T17:16:09;12.90;99.90
10692;DHT22;5396;50.950;6.988;2022-09-16T17:18:36;12.90;99.90
10692;DHT22;5396;50.950;6.988;2022-09-16T17:21:08;12.80;99.90
10692;DHT22;5396;50.950;6.988;2022-09-16T17:23:35;12.80;99.90
10692;DHT22;5396;50.950;6.988;2022-09-16T17:26:01;12.70;99.90
10692;DHT22;5396;50.950;6.988;2022-09-16T17:28:28;12.70;99.90
10692;DHT22;5396;50.950;6.988;2022-09-16T17:30:54;12.60;99.90
10692;DHT22;5396;50.950;6.988;2022-09-16T17:33:20;12.60;99.90
10692;DHT22;5396;50.950;6.988;2022-09-16T17:35:46;12.60;99.90
10692;DHT22;5396;50.950;6.988;2022-09-16T17:38:12;12.50;99.90
10692;DHT22;5396;50.950;6.988;2022-09-16T17:40:38;12.50;99.90
10692;DHT22;5396;50.950;6.988;2022-09-16T17:43:04;12.50;99.90
10692;DHT22;5396;50.950;6.988;2022-09-16T17:45:33;12.50;99.90
10692;DHT22;5396;50.950;6.988;2022-09-16T17:47:59;12.50;99.90
10692;DHT22;5396;50.950;6.988;2022-09-16T17:50:25;12.50;99.90
10692;DHT22;5396;50.950;6.988;2022-09-16T17:52:50;12.40;99.90
10692;DHT22;5396;50.950;6.988;2022-09-16T17:55:16;12.40;99.90
10692;DHT22;5396;50.950;6.988;2022-09-16T17:57:42;12.40;99.90
10692;DHT22;5396;50.950;6.988;2022-09-16T18:00:08;12.40;99.90
10692;DHT22;5396;50.950;6.988;2022-09-16T18:02:39;12.40;99.90
10692;DHT22;5396;50.950;6.988;2022-09-16T18:05:05;12.30;99.90
10692;DHT22;5396;50.950;6.988;2022-09-16T18:07:31;12.30;99.90
10692;DHT22;5396;50.950;6.988;2022-09-16T18:09:57;12.20;99.90
10692;DHT22;5396;50.950;6.988;2022-09-16T18:12:22;12.20;99.90
10692;DHT22;5396;50.950;6.988;2022-09-16T18:14:48;12.20;99.90
10692;DHT22;5396;50.950;6.988;2022-09-16T18:17:13;12.10;99.90
10692;DHT22;5396;50.950;6.988;2022-09-16T18:19:39;12.10;99.90
10692;DHT22;5396;50.950;6.988;2022-09-16T18:22:04;12.10;99.90
10692;DHT22;5396;50.950;6.988;2022-09-16T18:24:30;12.00;99.90
10692;DHT22;5396;50.950;6.988;2022-09-16T18:26:56;12.00;99.90
10692;DHT22;5396;50.950;6.988;2022-09-16T18:29:21;11.90;99.90
10692;DHT22;5396;50.950;6.988;2022-09-16T18:31:47;11.90;99.90
10692;DHT22;5396;50.950;6.988;2022-09-16T18:34:14;11.90;99.90
10692;DHT22;5396;50.950;6.988;2022-09-16T18:36:40;11.90;99.90
10692;DHT22;5396;50.950;6.988;2022-09-16T18:39:10;11.90;99.90
10692;DHT22;5396;50.950;6.988;2022-09-16T18:41:38;11.80;99.90
10692;DHT22;5396;50.950;6.988;2022-09-16T18:44:10;11.80;99.90
10692;DHT22;5396;50.950;6.988;2022-09-16T18:46:36;11.80;99.90
10692;DHT22;5396;50.950;6.988;2022-09-16T18:49:03;11.70;99.90
10692;DHT22;5396;50.950;6.988;2022-09-16T18:51:37;11.70;99.90
10692;DHT22;5396;50.950;6.988;2022-09-16T18:54:05;11.70;99.90
10692;DHT22;5396;50.950;6.988;2022-09-16T18:56:33;11.70;99.90
10692;DHT22;5396;50.950;6.988;2022-09-16T18:59:02;11.70;99.90
10692;DHT22;5396;50.950;6.988;2022-09-16T19:01:30;11.70;99.90
10692;DHT22;5396;50.950;6.988;2022-09-16T19:03:58;11.60;99.90
10692;DHT22;5396;50.950;6.988;2022-09-16T19:06:29;11.60;99.90